Capitol Logistics 32


PANC
Ted Stevens Anchorage International Airport
Anchorage, Alaska, US
RJAA
Tokyo-Narita International Airport
Tokyo, , JP

Route Details

Aircraft Information
Primary: Boeing 777-200LRF
Backup: Boeing 767-300BDSF
Route Data
Distance: 2981nm
Sched. Duration: 7h 15m
Avg. Duration: 7h 39m (+24m)
Times Flown: 10
Recm'd Route: NODLE R220 NANZA R220 NIKLL R220 NANAC Y810 ARMOR Y810 KETAR Y811 MELON
Planned Altitude: 36,000ft
Origin Wx: PANC 281953Z 32004KT 10SM FEW050 M11/M16 A2989 RMK AO2 SLP127 T11061156 $
Dest. Wx: RJAA 282030Z 10003KT 9999 VCSH FEW015 SCT030 BKN130 05/02 Q1019 NOSIG
Notes:

Financial History
Total Freight: 716,805lbs
Average Load: 71,681lbs/flt
Fuel Used: 812,611lbs
Avg. Fuel Used: 81,261lbs/flt
Fuel Expense: $988,618
Avg. Fuel Expense: $98,862
Avg. Fuel Cost: $1.22/lbs
Total Gross Income: $2,192,799
Pilot Pay: $1,900
Total Expenses: $237,184
Total Revenue: $948,967
Average Revenue: $219,279.87